Time;durP1;ratioP1;P1;durP2;ratioP2;P2;SDS_P1;SDS_P2;PMS_P1;PMS_P2;Temp;Humidity;BMP_temperature;BMP_pressure;BME280_temperature;BME280_humidity;BME280_pressure;Samples;Min_cycle;Max_cycle;Signal;HPM_P1;HPM_P2
2024/05/06 00:02:24;;;;;;;13.40;12.10;;;9.90;99.90;;;;;;5476903;26;20010;-69
2024/05/06 00:04:49;;;;;;;14.48;11.52;;;9.90;99.90;;;;;;5466161;26;19998;-67
2024/05/06 00:07:15;;;;;;;13.40;11.05;;;9.90;99.90;;;;;;5472826;26;19998;-67
2024/05/06 00:09:41;;;;;;;13.77;11.98;;;9.80;99.90;;;;;;5479350;26;20013;-67
2024/05/06 00:12:06;;;;;;;11.73;10.52;;;9.90;99.90;;;;;;5478135;26;20357;-67
2024/05/06 00:14:32;;;;;;;13.77;10.98;;;9.90;99.90;;;;;;5476102;26;20543;-67
2024/05/06 00:16:57;;;;;;;13.13;11.65;;;9.80;99.90;;;;;;5473170;26;20016;-67
2024/05/06 00:19:23;;;;;;;12.80;11.50;;;9.80;99.90;;;;;;5448147;26;19994;-67
2024/05/06 00:21:48;;;;;;;13.98;10.80;;;9.80;99.90;;;;;;5452244;26;20042;-67
2024/05/06 00:24:14;;;;;;;12.40;11.15;;;9.70;99.90;;;;;;5472164;26;20018;-67
2024/05/06 00:26:40;;;;;;;13.27;11.90;;;9.70;99.90;;;;;;5480930;26;19994;-67
2024/05/06 00:29:05;;;;;;;15.00;13.00;;;9.70;99.90;;;;;;5471460;26;20006;-67
2024/05/06 00:31:31;;;;;;;13.40;12.07;;;9.70;99.90;;;;;;5477453;26;20013;-67
2024/05/06 00:33:56;;;;;;;13.00;11.65;;;9.70;99.90;;;;;;5451399;26;20076;-67
2024/05/06 00:36:22;;;;;;;14.43;11.25;;;9.70;99.90;;;;;;5443776;26;20007;-67
2024/05/06 00:38:47;;;;;;;15.32;12.30;;;9.60;99.90;;;;;;5467559;26;20009;-67
2024/05/06 00:41:13;;;;;;;16.70;12.88;;;9.60;99.90;;;;;;5465312;26;20072;-66
2024/05/06 00:43:39;;;;;;;14.65;12.82;;;9.60;99.90;;;;;;5467185;26;20006;-67
2024/05/06 00:46:05;;;;;;;17.08;12.88;;;9.60;99.90;;;;;;5448196;26;20010;-67
2024/05/06 00:48:31;;;;;;;15.23;12.50;;;9.60;99.90;;;;;;5467654;26;20006;-67
2024/05/06 00:50:58;;;;;;;14.38;12.80;;;9.50;99.90;;;;;;5468988;26;19999;-67
2024/05/06 00:53:25;;;;;;;13.43;12.02;;;9.50;99.90;;;;;;5474124;26;20087;-67
2024/05/06 00:55:51;;;;;;;17.58;12.75;;;9.50;99.90;;;;;;5467456;26;20030;-66
2024/05/06 00:58:18;;;;;;;14.18;12.77;;;9.50;99.90;;;;;;5473331;26;19995;-67
2024/05/06 01:00:44;;;;;;;16.90;14.38;;;9.50;99.90;;;;;;5469254;26;20018;-66
2024/05/06 01:03:10;;;;;;;20.45;15.60;;;9.40;99.90;;;;;;5462691;26;20010;-67
2024/05/06 01:05:36;;;;;;;;;;;9.40;99.90;;;;;;5447508;26;20005;-66
2024/05/06 01:08:01;;;;;;;14.07;12.60;;;9.40;99.90;;;;;;5472936;26;19952;-67
2024/05/06 01:10:27;;;;;;;16.35;13.35;;;9.40;99.90;;;;;;5468457;26;20344;-66
2024/05/06 01:12:53;;;;;;;14.95;13.32;;;9.40;99.90;;;;;;5449633;26;20013;-67
2024/05/06 01:15:18;;;;;;;15.48;12.75;;;9.40;99.90;;;;;;5470302;26;19994;-67
2024/05/06 01:17:44;;;;;;;15.35;13.75;;;9.30;99.90;;;;;;5473874;26;20017;-67
2024/05/06 01:20:10;;;;;;;15.43;13.77;;;9.30;99.90;;;;;;5468084;26;20041;-67
2024/05/06 01:22:52;;;;;;;15.02;13.50;;;9.30;99.90;;;;;;5432560;26;20010;-67
2024/05/06 01:25:17;;;;;;;15.93;14.32;;;9.30;99.90;;;;;;5459270;26;19995;-67
2024/05/06 01:27:43;;;;;;;17.67;14.85;;;9.30;99.90;;;;;;5471957;26;20275;-67
2024/05/06 01:30:09;;;;;;;18.23;16.13;;;9.30;99.90;;;;;;5466505;26;19998;-67
2024/05/06 01:32:35;;;;;;;18.75;14.93;;;9.30;99.90;;;;;;5447873;26;20385;-67
2024/05/06 01:35:01;;;;;;;18.48;14.88;;;9.30;99.90;;;;;;5474153;26;20009;-67
2024/05/06 01:37:27;;;;;;;;;;;9.30;99.90;;;;;;5477929;26;19994;-67
2024/05/06 01:39:53;;;;;;;15.93;14.38;;;9.30;99.90;;;;;;5467777;26;19932;-67
2024/05/06 01:42:18;;;;;;;17.95;14.35;;;9.30;99.90;;;;;;5469819;26;20028;-67
2024/05/06 01:44:45;;;;;;;15.57;13.32;;;9.20;99.90;;;;;;5467649;26;20028;-67
2024/05/06 01:47:11;;;;;;;14.50;13.05;;;9.20;99.90;;;;;;5472737;26;20029;-67
2024/05/06 01:49:37;;;;;;;19.50;14.82;;;9.20;99.90;;;;;;5473329;26;20001;-67
2024/05/06 01:52:03;;;;;;;19.85;15.93;;;9.20;99.90;;;;;;5439914;26;19999;-68
2024/05/06 01:54:28;;;;;;;19.40;15.60;;;9.10;99.90;;;;;;5444869;26;20010;-67
2024/05/06 01:56:54;;;;;;;17.52;15.65;;;9.10;99.90;;;;;;5468931;26;20075;-67
2024/05/06 01:59:20;;;;;;;20.10;16.10;;;9.10;99.90;;;;;;5465090;26;20002;-67
2024/05/06 02:01:45;;;;;;;18.90;16.05;;;9.10;99.90;;;;;;5473700;26;19995;-67
2024/05/06 02:04:11;;;;;;;18.58;14.40;;;9.10;99.90;;;;;;5461170;26;20450;-68
2024/05/06 02:06:40;;;;;;;;;;;9.10;99.90;;;;;;5471756;26;20034;-67
2024/05/06 02:09:06;;;;;;;15.88;14.27;;;9.10;99.90;;;;;;5465668;26;19932;-68
2024/05/06 02:11:32;;;;;;;20.88;15.02;;;9.10;99.90;;;;;;5474170;26;20075;-68
2024/05/06 02:13:57;;;;;;;18.63;15.00;;;9.10;99.90;;;;;;5469345;26;20064;-67
2024/05/06 02:16:23;;;;;;;18.08;16.02;;;9.00;99.90;;;;;;5475496;26;20042;-67
2024/05/06 02:18:48;;;;;;;16.35;14.30;;;9.00;99.90;;;;;;5469790;26;19995;-67
2024/05/06 02:21:17;;;;;;;17.98;16.10;;;9.00;99.90;;;;;;5472028;26;20831;-67
2024/05/06 02:23:42;;;;;;;19.88;16.33;;;9.00;99.90;;;;;;5463334;26;20027;-67
2024/05/06 02:26:08;;;;;;;17.98;16.08;;;9.00;99.90;;;;;;5457118;26;20452;-67
2024/05/06 02:28:33;;;;;;;17.13;15.02;;;9.00;99.90;;;;;;5470493;26;20031;-67
2024/05/06 02:30:59;;;;;;;20.42;15.80;;;9.00;99.90;;;;;;5470693;26;20071;-68
2024/05/06 02:33:24;;;;;;;20.08;15.45;;;9.00;99.90;;;;;;5468957;26;19995;-68
2024/05/06 02:35:50;;;;;;;17.63;15.75;;;9.00;99.90;;;;;;5447505;26;20057;-67
2024/05/06 02:38:15;;;;;;;20.23;15.20;;;9.00;99.90;;;;;;5464224;26;20292;-68
2024/05/06 02:40:41;;;;;;;18.63;16.63;;;9.00;99.90;;;;;;5471315;26;20002;-67
2024/05/06 02:43:06;;;;;;;20.20;15.90;;;8.90;99.90;;;;;;5467733;26;20004;-68
2024/05/06 02:45:32;;;;;;;16.50;14.63;;;8.90;99.90;;;;;;5449963;26;20026;-68
2024/05/06 02:47:57;;;;;;;17.65;15.18;;;8.80;99.90;;;;;;5475780;26;19999;-67
2024/05/06 02:50:23;;;;;;;18.88;16.95;;;8.80;99.90;;;;;;5471880;26;19995;-67
2024/05/06 02:52:49;;;;;;;22.42;17.98;;;8.80;99.90;;;;;;5463814;26;20071;-67
2024/05/06 02:55:14;;;;;;;21.52;17.13;;;8.80;99.90;;;;;;5476534;26;20543;-67
2024/05/06 02:57:40;;;;;;;21.55;16.17;;;8.80;99.90;;;;;;5471881;26;20423;-69
2024/05/06 03:00:06;;;;;;;15.68;14.07;;;8.70;99.90;;;;;;5476467;26;20014;-67
2024/05/06 03:02:32;;;;;;;16.23;14.52;;;8.70;99.90;;;;;;5448904;26;19998;-67
2024/05/06 03:04:57;;;;;;;15.90;14.30;;;8.70;99.90;;;;;;5468147;26;20009;-68
2024/05/06 03:07:23;;;;;;;19.25;16.88;;;8.60;99.90;;;;;;5474859;26;20009;-68
2024/05/06 03:09:48;;;;;;;17.48;15.35;;;8.60;99.90;;;;;;5467347;26;20013;-68
2024/05/06 03:12:14;;;;;;;19.83;16.92;;;8.50;99.90;;;;;;5475969;26;20416;-68
2024/05/06 03:14:39;;;;;;;19.90;17.17;;;8.50;99.90;;;;;;5450860;26;20417;-68
2024/05/06 03:17:07;;;;;;;21.08;16.67;;;8.50;99.90;;;;;;5474033;26;20424;-68
2024/05/06 03:19:33;;;;;;;19.67;16.23;;;8.50;99.90;;;;;;5471851;26;19999;-68
2024/05/06 03:21:58;;;;;;;19.58;16.08;;;8.50;99.90;;;;;;5475256;26;20089;-68
2024/05/06 03:24:24;;;;;;;22.52;16.25;;;8.50;99.90;;;;;;5441942;26;20452;-68
2024/05/06 03:26:49;;;;;;;17.95;15.52;;;8.50;99.90;;;;;;5469888;26;20034;-68
2024/05/06 03:29:15;;;;;;;21.58;15.85;;;8.50;99.90;;;;;;5480387;26;20002;-68
2024/05/06 03:31:44;;;;;;;22.05;16.45;;;8.50;99.90;;;;;;5471234;26;20006;-68
2024/05/06 03:34:10;;;;;;;18.45;15.98;;;8.50;99.90;;;;;;5464812;26;20009;-69
2024/05/06 03:36:36;;;;;;;21.67;17.40;;;8.50;99.90;;;;;;5472826;26;19998;-68
2024/05/06 03:39:02;;;;;;;18.58;16.58;;;8.50;99.90;;;;;;5470874;26;20492;-68
2024/05/06 03:41:27;;;;;;;19.75;17.65;;;8.50;99.90;;;;;;5468145;26;20007;-68
2024/05/06 03:43:53;;;;;;;20.48;17.98;;;8.50;99.90;;;;;;5472778;26;19995;-68
2024/05/06 03:46:19;;;;;;;21.67;18.40;;;8.50;99.90;;;;;;5475463;26;20010;-68
2024/05/06 03:48:45;;;;;;;19.25;17.17;;;8.60;99.90;;;;;;5450284;26;19998;-68
2024/05/06 03:51:10;;;;;;;;;;;8.60;99.90;;;;;;5435499;26;20425;-68
2024/05/06 03:53:36;;;;;;;21.50;18.58;;;8.70;99.90;;;;;;5476757;26;19924;-68
2024/05/06 03:56:02;;;;;;;21.20;17.23;;;8.70;99.90;;;;;;5474649;26;20401;-68
2024/05/06 03:58:27;;;;;;;24.00;17.67;;;8.70;99.90;;;;;;5472147;26;20348;-68
2024/05/06 04:00:53;;;;;;;21.17;18.90;;;8.70;99.90;;;;;;5471686;26;20003;-68
2024/05/06 04:03:18;;;;;;;24.83;20.05;;;8.70;99.90;;;;;;5469162;26;20064;-68
2024/05/06 04:05:44;;;;;;;22.80;20.38;;;8.70;99.90;;;;;;5475344;26;19998;-68
2024/05/06 04:08:10;;;;;;;23.92;19.40;;;8.70;99.90;;;;;;5470975;26;20002;-68
2024/05/06 04:10:35;;;;;;;22.48;19.70;;;8.70;99.90;;;;;;5482448;26;20117;-68
2024/05/06 04:13:01;;;;;;;22.27;18.42;;;8.80;99.90;;;;;;5446760;26;19998;-68
2024/05/06 04:15:26;;;;;;;22.88;19.42;;;8.80;99.90;;;;;;5475125;26;20006;-68
2024/05/06 04:17:52;;;;;;;25.92;21.45;;;8.80;99.90;;;;;;5448494;26;20027;-68
2024/05/06 04:20:18;;;;;;;24.45;21.85;;;8.80;99.90;;;;;;5445456;26;20395;-68
2024/05/06 04:22:44;;;;;;;26.48;20.40;;;8.80;99.90;;;;;;5447522;26;20001;-68
2024/05/06 04:27:54;;;;;;;28.02;21.95;;;8.80;99.90;;;;;;5466075;26;20056;-68
2024/05/06 04:30:19;;;;;;;25.50;21.42;;;8.90;99.90;;;;;;5475398;26;20488;-67
2024/05/06 04:32:45;;;;;;;24.95;22.13;;;8.90;99.90;;;;;;5448911;26;20009;-68
2024/05/06 04:35:10;;;;;;;23.60;21.08;;;9.00;99.90;;;;;;5446255;26;20467;-68
2024/05/06 04:37:36;;;;;;;23.63;21.17;;;9.10;99.90;;;;;;5473290;26;20006;-68
2024/05/06 04:40:01;;;;;;;24.98;21.42;;;9.10;99.90;;;;;;5450436;26;20009;-68
2024/05/06 04:42:27;;;;;;;26.85;21.40;;;9.10;99.90;;;;;;5476310;26;19998;-68
2024/05/06 04:44:53;;;;;;;27.17;22.55;;;9.10;99.90;;;;;;5469629;26;19999;-68
2024/05/06 04:47:18;;;;;;;27.38;23.45;;;9.10;99.90;;;;;;5471315;26;20070;-67
2024/05/06 04:49:45;;;;;;;30.23;22.92;;;9.20;99.90;;;;;;5470542;26;20374;-68
2024/05/06 04:52:10;;;;;;;28.40;22.95;;;9.20;99.90;;;;;;5468477;26;19998;-68
2024/05/06 04:54:36;;;;;;;27.83;23.30;;;9.20;99.90;;;;;;5468977;26;20437;-68
2024/05/06 04:57:01;;;;;;;28.70;22.90;;;9.30;99.90;;;;;;5448953;26;19995;-68
2024/05/06 04:59:27;;;;;;;28.60;23.90;;;9.30;99.90;;;;;;5471531;26;20015;-68
2024/05/06 05:01:53;;;;;;;28.20;24.08;;;9.40;99.90;;;;;;5449637;26;19994;-68
2024/05/06 05:04:19;;;;;;;29.48;26.17;;;9.40;99.90;;;;;;5469801;26;20006;-68
2024/05/06 05:06:44;;;;;;;26.92;24.10;;;9.50;99.90;;;;;;5466481;26;19994;-68
2024/05/06 05:09:12;;;;;;;28.30;24.85;;;9.60;99.90;;;;;;5475470;26;20039;-68
2024/05/06 05:11:37;;;;;;;30.92;25.60;;;9.70;99.90;;;;;;5476276;26;20317;-68
2024/05/06 05:14:03;;;;;;;30.45;26.08;;;9.70;99.90;;;;;;5465688;26;20038;-69
2024/05/06 05:16:28;;;;;;;30.27;24.80;;;9.80;99.90;;;;;;5449884;26;20490;-68
2024/05/06 05:18:54;;;;;;;28.55;24.15;;;9.90;99.90;;;;;;5475730;26;20014;-67
2024/05/06 05:21:20;;;;;;;28.63;24.02;;;9.90;99.90;;;;;;5469800;26;20041;-68
2024/05/06 05:23:45;;;;;;;28.60;24.00;;;9.90;99.90;;;;;;5467585;26;20096;-68
2024/05/06 05:26:11;;;;;;;29.70;25.70;;;10.00;99.90;;;;;;5475476;26;19990;-69
2024/05/06 05:28:36;;;;;;;28.63;24.80;;;10.10;99.90;;;;;;5472389;26;19999;-69
2024/05/06 05:31:02;;;;;;;29.30;24.70;;;10.10;99.90;;;;;;5469510;26;20499;-69
2024/05/06 05:33:28;;;;;;;29.17;23.65;;;10.20;99.90;;;;;;5473234;26;20283;-68
2024/05/06 05:35:53;;;;;;;29.20;23.63;;;10.20;99.90;;;;;;5471713;26;20008;-68
2024/05/06 05:38:20;;;;;;;28.10;22.88;;;10.30;99.90;;;;;;5469428;26;20389;-68
2024/05/06 05:40:46;;;;;;;26.15;22.92;;;10.30;99.90;;;;;;5445175;26;20019;-69
2024/05/06 05:43:11;;;;;;;24.00;21.42;;;10.40;99.90;;;;;;5474087;26;20412;-69
2024/05/06 05:45:37;;;;;;;27.73;22.90;;;10.40;99.90;;;;;;5440860;26;20007;-69
2024/05/06 05:48:03;;;;;;;28.55;22.27;;;10.50;99.90;;;;;;5432074;26;20000;-69
2024/05/06 05:50:29;;;;;;;24.98;21.60;;;10.60;99.90;;;;;;5438873;26;20009;-68
2024/05/06 05:52:55;;;;;;;24.42;21.80;;;10.60;99.90;;;;;;5443391;26;20329;-68
2024/05/06 05:55:21;;;;;;;25.23;21.80;;;10.80;99.90;;;;;;5435750;26;20009;-69
2024/05/06 05:57:49;;;;;;;27.23;21.42;;;10.80;99.90;;;;;;5445497;26;19998;-68
2024/05/06 06:00:15;;;;;;;25.45;21.17;;;10.90;99.90;;;;;;5440883;26;20325;-68
2024/05/06 06:02:42;;;;;;;;;;;11.00;99.90;;;;;;5434961;26;20028;-69
2024/05/06 06:05:08;;;;;;;27.77;21.20;;;11.10;99.90;;;;;;5435581;26;19931;-68
2024/05/06 06:07:33;;;;;;;30.48;20.80;;;11.20;99.90;;;;;;5441233;26;20003;-69
2024/05/06 06:09:59;;;;;;;23.23;19.23;;;11.30;99.90;;;;;;5437025;26;19999;-69
2024/05/06 06:12:24;;;;;;;24.52;20.02;;;11.40;99.90;;;;;;5437520;26;20449;-68
2024/05/06 06:14:50;;;;;;;23.08;18.85;;;11.40;99.90;;;;;;5429376;26;20018;-68
2024/05/06 06:17:16;;;;;;;22.00;19.38;;;11.50;99.90;;;;;;5439083;26;20141;-69
2024/05/06 06:19:41;;;;;;;21.35;18.65;;;11.70;99.90;;;;;;5440084;26;20033;-69
2024/05/06 06:22:07;;;;;;;21.30;18.95;;;11.70;99.90;;;;;;5430559;26;20060;-69
2024/05/06 06:24:32;;;;;;;22.30;19.40;;;11.80;99.90;;;;;;5436720;26;20394;-68
2024/05/06 06:26:58;;;;;;;22.60;18.73;;;11.90;99.90;;;;;;5441897;26;20035;-68
2024/05/06 06:29:23;;;;;;;20.42;18.20;;;12.10;99.90;;;;;;5441269;26;20329;-69
2024/05/06 06:31:49;;;;;;;23.05;19.77;;;12.30;99.90;;;;;;5430328;26;19995;-69
2024/05/06 06:34:17;;;;;;;;;;;12.40;99.90;;;;;;5439627;26;20415;-69
2024/05/06 06:36:42;;;;;;;;;;;12.70;99.90;;;;;;5436034;26;19931;-69
2024/05/06 06:39:09;;;;;;;17.65;15.70;;;12.80;99.90;;;;;;5446351;26;19928;-68
2024/05/06 06:41:34;;;;;;;;;;;13.00;99.90;;;;;;5433646;26;20010;-68
2024/05/06 06:43:59;;;;;;;19.73;15.00;;;13.30;99.90;;;;;;5442266;26;19925;-68
2024/05/06 06:46:25;;;;;;;16.33;14.63;;;13.50;99.90;;;;;;5440108;26;20017;-69
2024/05/06 06:48:51;;;;;;;18.52;14.93;;;13.60;99.90;;;;;;5436692;26;20011;-69
2024/05/06 06:51:17;;;;;;;;;;;13.80;99.90;;;;;;5444710;26;19991;-68
2024/05/06 06:53:43;;;;;;;15.82;13.52;;;14.00;99.90;;;;;;5447524;26;19924;-68
2024/05/06 06:56:08;;;;;;;14.07;12.68;;;14.20;99.90;;;;;;5442889;26;19995;-68
2024/05/06 06:58:34;;;;;;;;;;;14.30;99.90;;;;;;5448390;26;20053;-68
2024/05/06 07:01:00;;;;;;;13.93;12.50;;;14.60;99.90;;;;;;5442306;26;19925;-68
2024/05/06 07:03:25;;;;;;;;;;;14.80;99.90;;;;;;5440842;26;20352;-68
2024/05/06 07:05:51;;;;;;;15.05;12.80;;;14.90;99.90;;;;;;5437977;26;20258;-68
2024/05/06 07:08:16;;;;;;;;;;;15.00;99.90;;;;;;5434171;26;20007;-67
2024/05/06 07:10:43;;;;;;;15.73;11.88;;;15.20;99.90;;;;;;5442920;26;19931;-67
2024/05/06 07:13:09;;;;;;;12.38;11.07;;;15.40;99.90;;;;;;5439003;26;20013;-68
2024/05/06 07:15:35;;;;;;;15.23;11.40;;;15.60;99.90;;;;;;5439506;26;20011;-68
2024/05/06 07:18:01;;;;;;;;;;;15.70;99.90;;;;;;5433633;26;20006;-67
2024/05/06 07:20:26;;;;;;;11.60;10.20;;;15.80;99.90;;;;;;5435990;26;19933;-67
2024/05/06 07:22:52;;;;;;;;;;;15.90;99.90;;;;;;5439599;26;20463;-67
2024/05/06 07:25:17;;;;;;;9.75;8.85;;;15.90;99.90;;;;;;5435971;26;19924;-68
2024/05/06 07:27:43;;;;;;;;;;;16.00;99.90;;;;;;5441456;26;20003;-67
2024/05/06 07:30:09;;;;;;;9.73;8.73;;;16.00;99.90;;;;;;5445804;26;19931;-67
2024/05/06 07:32:34;;;;;;;;;;;16.10;99.90;;;;;;5442581;26;19994;-67
2024/05/06 07:35:00;;;;;;;12.10;9.45;;;16.30;99.90;;;;;;5436927;26;19995;-67
2024/05/06 07:37:25;;;;;;;;;;;16.30;99.90;;;;;;5433407;26;20407;-67
2024/05/06 07:39:51;;;;;;;11.60;9.27;;;16.30;99.90;;;;;;5433401;26;20232;-68
2024/05/06 07:42:17;;;;;;;;;;;16.40;99.90;;;;;;5437875;26;19999;-68
2024/05/06 07:44:42;;;;;;;9.23;8.15;;;16.60;99.90;;;;;;5432320;26;19925;-68
2024/05/06 07:47:08;;;;;;;;;;;16.70;99.90;;;;;;5476035;26;20103;-68
2024/05/06 07:49:33;;;;;;;8.02;7.22;;;16.80;99.90;;;;;;5449530;26;19931;-68
2024/05/06 07:51:59;;;;;;;;;;;16.80;99.90;;;;;;5476970;26;20013;-68
2024/05/06 07:54:26;;;;;;;9.82;8.15;;;17.00;99.90;;;;;;5471584;26;19993;-68
2024/05/06 07:56:53;;;;;;;12.93;8.52;;;17.00;99.90;;;;;;5473655;26;20092;-68
2024/05/06 07:59:19;;;;;;;10.20;7.85;;;17.10;99.90;;;;;;5452631;26;20421;-67
2024/05/06 08:01:44;;;;;;;;;;;17.20;99.90;;;;;;5468076;26;19994;-67
2024/05/06 08:04:10;;;;;;;9.30;7.57;;;17.30;99.90;;;;;;5472763;26;19924;-67
2024/05/06 08:06:36;;;;;;;;;;;17.50;99.90;;;;;;5447982;26;20909;-67
2024/05/06 08:09:03;;;;;;;10.32;7.93;;;17.50;99.90;;;;;;5444032;26;19924;-68
2024/05/06 08:11:29;;;;;;;9.48;8.50;;;17.60;99.90;;;;;;5476350;26;20023;-67
2024/05/06 08:13:55;;;;;;;8.27;7.47;;;17.50;99.90;;;;;;5451124;26;20002;-68
2024/05/06 08:16:20;;;;;;;;;;;17.70;99.90;;;;;;5440214;26;20016;-67
2024/05/06 08:18:46;;;;;;;9.80;7.40;;;17.80;99.90;;;;;;5446857;26;19928;-68
2024/05/06 08:21:11;;;;;;;;;;;17.80;99.90;;;;;;5470866;26;20003;-67
2024/05/06 08:23:37;;;;;;;12.43;8.32;;;17.90;99.90;;;;;;5472190;26;20254;-67
2024/05/06 08:26:02;;;;;;;;;;;18.00;99.90;;;;;;5444748;26;20463;-67
2024/05/06 08:28:28;;;;;;;9.20;7.22;;;18.10;99.90;;;;;;5445446;26;20246;-67
2024/05/06 08:30:53;;;;;;;;;;;18.20;99.90;;;;;;5453123;26;20308;-66
2024/05/06 08:33:19;;;;;;;6.80;5.70;;;18.20;99.90;;;;;;5472599;26;20319;-67
2024/05/06 08:35:46;;;;;;;;;;;18.20;99.90;;;;;;5444789;26;20006;-67
2024/05/06 08:38:12;;;;;;;6.90;5.13;;;18.30;99.90;;;;;;5470474;26;19952;-68
2024/05/06 08:40:38;;;;;;;;;;;18.20;99.90;;;;;;5437869;26;20076;-67
2024/05/06 08:43:07;;;;;;;8.18;5.32;;;18.10;99.90;;;;;;5444275;26;19932;-67
2024/05/06 08:45:37;;;;;;;7.55;5.38;;;17.90;99.90;;;;;;5466857;26;20010;-68
2024/05/06 08:48:03;;;;;;;7.88;5.45;;;17.90;99.90;;;;;;5465002;26;20025;-67
2024/05/06 08:50:32;;;;;;;9.45;5.53;;;18.00;99.90;;;;;;5446323;26;20468;-68
2024/05/06 08:52:58;;;;;;;5.57;4.97;;;18.10;99.90;;;;;;5444595;26;20017;-68
2024/05/06 08:55:24;;;;;;;;;;;18.20;99.90;;;;;;5442894;26;20017;-68
2024/05/06 08:57:49;;;;;;;6.95;4.82;;;18.30;99.90;;;;;;5472688;26;20283;-67
2024/05/06 09:00:16;;;;;;;;;;;18.20;99.90;;;;;;5442118;26;20424;-67
2024/05/06 09:02:50;;;;;;;8.30;5.20;;;18.10;99.90;;;;;;5471377;26;19931;-67
2024/05/06 09:05:25;;;;;;;7.43;6.70;;;18.00;99.90;;;;;;5469359;26;20005;-67
2024/05/06 09:07:55;;;;;;;8.00;6.50;;;17.90;99.90;;;;;;5470946;26;20861;-67
2024/05/06 09:10:28;;;;;;;6.63;5.68;;;17.90;99.90;;;;;;5449685;26;20067;-67
2024/05/06 09:12:54;;;;;;;10.55;5.90;;;17.90;99.90;;;;;;5470973;26;20006;-67
2024/05/06 09:15:19;;;;;;;;;;;18.00;99.90;;;;;;5471987;26;20002;-67
2024/05/06 09:17:48;;;;;;;6.60;5.70;;;18.10;99.90;;;;;;5474267;26;19924;-67
2024/05/06 09:20:14;;;;;;;7.22;5.30;;;18.10;99.90;;;;;;5443941;26;20075;-67
2024/05/06 09:22:40;;;;;;;;;;;18.20;99.90;;;;;;5481527;26;20009;-67
2024/05/06 09:25:08;;;;;;;7.57;4.72;;;18.20;99.90;;;;;;5443824;26;19938;-68
2024/05/06 09:27:33;;;;;;;6.85;4.85;;;18.30;99.90;;;;;;5443718;26;19994;-67
2024/05/06 09:30:06;;;;;;;;;;;18.10;99.90;;;;;;5472292;26;20016;-67
2024/05/06 09:32:32;;;;;;;6.20;5.07;;;18.10;99.90;;;;;;5472335;26;20226;-67
2024/05/06 09:35:05;;;;;;;5.45;4.90;;;18.20;99.90;;;;;;5478401;26;20044;-67
2024/05/06 09:37:36;;;;;;;5.93;5.03;;;18.20;99.90;;;;;;5473886;26;20320;-67
2024/05/06 09:40:08;;;;;;;6.72;5.60;;;18.20;99.90;;;;;;5472681;26;19991;-67
2024/05/06 09:42:52;;;;;;;6.50;5.28;;;18.30;99.90;;;;;;5475515;26;19999;-68
2024/05/06 09:45:21;;;;;;;5.55;4.90;;;18.30;99.90;;;;;;5473989;26;20592;-67
2024/05/06 09:47:48;;;;;;;6.35;4.57;;;18.40;99.90;;;;;;5476641;26;20290;-67
2024/05/06 09:50:14;;;;;;;5.35;4.70;;;18.40;99.90;;;;;;5459385;26;20010;-67
2024/05/06 09:52:40;;;;;;;5.03;4.60;;;18.50;99.90;;;;;;5468220;26;20028;-67
2024/05/06 09:55:08;;;;;;;5.18;4.40;;;18.50;99.90;;;;;;5470261;26;20038;-67
2024/05/06 09:57:36;;;;;;;5.05;4.30;;;18.50;99.90;;;;;;5475337;26;20078;-66
2024/05/06 10:00:02;;;;;;;5.97;4.28;;;18.50;99.90;;;;;;5446754;26;19999;-66
2024/05/06 10:02:29;;;;;;;5.05;4.28;;;18.40;99.90;;;;;;5471912;26;20007;-66
2024/05/06 10:04:55;;;;;;;6.63;4.18;;;18.30;99.90;;;;;;5471577;26;20066;-66
2024/05/06 10:07:27;;;;;;;6.60;3.92;;;18.30;99.90;;;;;;5469034;26;19999;-66
2024/05/06 10:10:00;;;;;;;5.22;3.83;;;18.40;99.90;;;;;;5442469;26;20010;-67
2024/05/06 10:12:37;;;;;;;4.22;3.80;;;18.50;99.90;;;;;;5464477;26;20006;-67
2024/05/06 10:15:07;;;;;;;4.43;3.75;;;18.40;99.90;;;;;;5472125;26;19994;-67
2024/05/06 10:17:44;;;;;;;5.88;3.50;;;18.50;99.90;;;;;;5473653;26;20003;-67
2024/05/06 10:20:19;;;;;;;4.03;3.53;;;18.60;99.90;;;;;;5471745;26;20070;-67
2024/05/06 10:22:57;;;;;;;4.43;3.85;;;18.60;99.90;;;;;;5470214;26;20120;-67
2024/05/06 10:25:26;;;;;;;4.90;3.60;;;18.70;99.90;;;;;;5469509;26;20110;-66
2024/05/06 10:27:53;;;;;;;4.68;3.42;;;18.70;99.90;;;;;;5467454;26;20017;-67
2024/05/06 10:30:19;;;;;;;4.32;3.33;;;18.70;99.90;;;;;;5473703;26;20009;-66
2024/05/06 10:32:46;;;;;;;4.80;2.92;;;18.60;99.90;;;;;;5446752;26;20034;-66
2024/05/06 10:35:14;;;;;;;4.10;3.20;;;18.60;99.80;;;;;;5467928;26;20026;-66
2024/05/06 10:37:40;;;;;;;3.85;2.97;;;18.60;99.00;;;;;;5474608;26;20015;-66
2024/05/06 10:40:07;;;;;;;;;;;18.60;99.40;;;;;;5468807;26;20499;-66
2024/05/06 10:42:39;;;;;;;;;;;18.60;99.60;;;;;;5467310;26;20031;-67
2024/05/06 10:45:06;;;;;;;3.10;2.53;;;18.50;99.40;;;;;;5472809;26;19925;-67
2024/05/06 10:47:31;;;;;;;3.90;2.25;;;18.50;99.20;;;;;;5464055;26;19999;-67
2024/05/06 10:49:57;;;;;;;;;;;18.50;99.50;;;;;;5471989;26;19995;-66
2024/05/06 10:52:22;;;;;;;3.13;2.47;;;18.50;99.00;;;;;;5473857;26;19924;-67
2024/05/06 10:54:49;;;;;;;4.38;2.55;;;18.60;99.80;;;;;;5476661;26;20008;-67
2024/05/06 10:57:16;;;;;;;4.40;2.47;;;18.70;99.70;;;;;;5466584;26;20034;-67
2024/05/06 10:59:41;;;;;;;3.47;2.50;;;18.80;97.90;;;;;;5474675;26;19998;-66
2024/05/06 11:02:07;;;;;;;;;;;18.90;98.80;;;;;;5439234;26;20066;-67
2024/05/06 11:04:34;;;;;;;3.83;3.22;;;18.90;99.60;;;;;;5462999;26;19924;-66
2024/05/06 11:06:59;;;;;;;2.97;2.60;;;19.00;99.10;;;;;;5467079;26;20009;-67
2024/05/06 11:09:30;;;;;;;;;;;19.10;99.50;;;;;;5470076;26;20332;-67
2024/05/06 11:11:55;;;;;;;3.85;2.40;;;19.20;98.40;;;;;;5474034;26;19924;-67
2024/05/06 11:14:22;;;;;;;;;;;19.20;97.10;;;;;;5469103;26;19999;-67
2024/05/06 11:16:47;;;;;;;5.03;2.50;;;19.20;97.70;;;;;;5471744;26;19924;-67
2024/05/06 11:19:13;;;;;;;;;;;19.10;97.80;;;;;;5477732;26;20380;-66
2024/05/06 11:21:39;;;;;;;2.20;1.90;;;19.10;97.40;;;;;;5452690;26;20000;-67
2024/05/06 11:24:08;;;;;;;2.70;2.13;;;19.10;97.10;;;;;;5472312;26;20009;-67
2024/05/06 11:26:33;;;;;;;3.65;2.20;;;19.10;97.70;;;;;;5467699;26;20486;-67
2024/05/06 11:28:59;;;;;;;;;;;19.20;97.40;;;;;;5474306;26;20006;-67
2024/05/06 11:31:26;;;;;;;4.43;2.50;;;19.20;97.10;;;;;;5469489;26;20320;-67
2024/05/06 11:33:52;;;;;;;4.88;2.80;;;19.20;96.90;;;;;;5465597;26;20420;-67
2024/05/06 11:36:18;;;;;;;;;;;19.20;97.80;;;;;;5465101;26;19995;-67
2024/05/06 11:38:44;;;;;;;3.90;3.13;;;19.10;97.90;;;;;;5471887;26;20346;-67
2024/05/06 11:41:14;;;;;;;3.83;2.63;;;19.20;98.00;;;;;;5475007;26;20026;-66
2024/05/06 11:43:40;;;;;;;5.50;2.40;;;19.20;97.60;;;;;;5446983;26;19990;-67
2024/05/06 11:46:06;;;;;;;;;;;19.20;98.10;;;;;;5471795;26;20417;-66
2024/05/06 11:48:31;;;;;;;2.42;2.10;;;19.10;97.50;;;;;;5480572;26;19931;-67
2024/05/06 11:50:57;;;;;;;;;;;19.00;96.70;;;;;;5469146;26;20067;-67
2024/05/06 11:53:23;;;;;;;3.15;2.00;;;19.10;96.60;;;;;;5452989;26;19931;-67
2024/05/06 11:55:49;;;;;;;8.48;2.70;;;19.10;96.40;;;;;;5448975;26;19995;-67
2024/05/06 11:58:15;;;;;;;2.40;2.20;;;19.10;96.00;;;;;;5449532;26;20002;-67
2024/05/06 12:00:41;;;;;;;2.15;1.80;;;19.10;96.60;;;;;;5445361;26;20035;-67
2024/05/06 12:03:07;;;;;;;;;;;19.30;97.10;;;;;;5448713;26;20002;-67
2024/05/06 12:05:32;;;;;;;3.33;2.50;;;19.40;96.70;;;;;;5472453;26;19933;-67
2024/05/06 12:07:58;;;;;;;;;;;19.50;97.30;;;;;;5475388;26;20006;-67
2024/05/06 12:10:24;;;;;;;2.72;2.33;;;19.50;98.90;;;;;;5443891;26;20212;-67
2024/05/06 12:12:49;;;;;;;4.20;2.75;;;19.60;97.60;;;;;;5470882;26;20006;-67
2024/05/06 12:15:15;;;;;;;3.58;2.60;;;19.60;97.20;;;;;;5474063;26;20016;-67
2024/05/06 12:17:40;;;;;;;4.10;3.10;;;19.70;97.80;;;;;;5471191;26;19994;-67
2024/05/06 12:20:06;;;;;;;3.72;2.60;;;19.70;97.40;;;;;;5445936;26;20036;-67
2024/05/06 12:22:32;;;;;;;2.92;2.50;;;19.70;97.80;;;;;;5473878;26;19998;-67
2024/05/06 12:24:58;;;;;;;5.82;2.65;;;19.70;97.00;;;;;;5474507;26;20006;-68
2024/05/06 12:27:23;;;;;;;4.60;2.50;;;19.60;97.10;;;;;;5448923;26;19994;-67
2024/05/06 12:29:49;;;;;;;2.50;2.20;;;19.60;97.00;;;;;;5467344;26;20006;-67
2024/05/06 12:32:14;;;;;;;2.92;2.03;;;19.60;96.70;;;;;;5472543;26;19994;-67
2024/05/06 12:34:40;;;;;;;2.78;2.30;;;19.70;96.70;;;;;;5475970;26;20013;-68
2024/05/06 12:37:07;;;;;;;2.20;1.80;;;19.80;96.80;;;;;;5471757;26;20017;-67
2024/05/06 12:39:33;;;;;;;2.60;2.15;;;19.80;95.90;;;;;;5471767;26;20071;-66
2024/05/06 12:41:58;;;;;;;2.95;1.88;;;19.90;95.60;;;;;;5472237;26;20002;-67
2024/05/06 12:44:24;;;;;;;6.32;2.83;;;20.00;96.90;;;;;;5475222;26;20002;-66
2024/05/06 12:46:51;;;;;;;3.08;2.65;;;20.00;96.60;;;;;;5446969;26;20290;-66
2024/05/06 12:49:17;;;;;;;4.88;2.75;;;20.10;95.80;;;;;;5465621;26;20027;-67
2024/05/06 12:51:44;;;;;;;2.92;2.00;;;20.10;96.20;;;;;;5469903;26;20355;-67